EJU51ZD EDDL-LIMC
Flight info
| Callsign | EJU51ZD |
|---|---|
| Flight time | 1h 5m |
| Altitude | 33000 |
| Route | DODEN7Z/05R DODEN Y852 NATOR DCT DITON DCT BASGO/N0460F290 Z424 AKASU/N0392F190 Z424 RIXUV |
| Aircraft | A320/M-SDE3FGHIRWY/LB1 |
Departure
| Time | 2026-02-18 21:38 |
|---|---|
| Airport | Düsseldorf Airport (EDDL) |
Arrival
| Time | 2026-02-18 22:44 |
|---|---|
| Airport | Milan Malpensa International Airport (LIMC) |
| Time | Latitude | Longitude | Altitude | Speed | Heading |
|---|---|---|---|---|---|
| 2026-02-18 21:09 | 51.28063 | 6.76289 | 126 ft | 0 kts | 185° |
| 2026-02-18 21:29 | 51.28076 | 6.76291 | 130 ft | 3 kts | 188° |
| 2026-02-18 21:29 | 51.28095 | 6.76297 | 130 ft | 3 kts | 203° |
| 2026-02-18 21:29 | 51.28111 | 6.76312 | 137 ft | 2 kts | 226° |
| 2026-02-18 21:30 | 51.28120 | 6.76328 | 130 ft | 3 kts | 238° |
| 2026-02-18 21:30 | 51.28127 | 6.76355 | 130 ft | 3 kts | 277° |
| 2026-02-18 21:30 | 51.28120 | 6.76382 | 128 ft | 3 kts | 311° |
| 2026-02-18 21:30 | 51.28106 | 6.76404 | 130 ft | 2 kts | 324° |
| 2026-02-18 21:31 | 51.28097 | 6.76414 | 130 ft | 2 kts | 326° |
| 2026-02-18 21:31 | 51.28093 | 6.76419 | 130 ft | 0 kts | 326° |
| 2026-02-18 21:33 | 51.28094 | 6.76418 | 126 ft | 1 kts | 326° |
| 2026-02-18 21:33 | 51.28101 | 6.76410 | 130 ft | 3 kts | 326° |
| 2026-02-18 21:34 | 51.28124 | 6.76373 | 130 ft | 4 kts | 304° |
| 2026-02-18 21:34 | 51.28138 | 6.76326 | 128 ft | 6 kts | 291° |
| 2026-02-18 21:34 | 51.28161 | 6.76282 | 130 ft | 5 kts | 320° |
| 2026-02-18 21:34 | 51.28206 | 6.76201 | 123 ft | 12 kts | 278° |
| 2026-02-18 21:35 | 51.28166 | 6.76097 | 129 ft | 10 kts | 232° |
| 2026-02-18 21:35 | 51.28112 | 6.75984 | 128 ft | 16 kts | 233° |
| 2026-02-18 21:35 | 51.28051 | 6.75856 | 128 ft | 14 kts | 232° |
| 2026-02-18 21:35 | 51.27997 | 6.75744 | 129 ft | 12 kts | 232° |
| 2026-02-18 21:36 | 51.27951 | 6.75646 | 135 ft | 10 kts | 233° |
| 2026-02-18 21:36 | 51.27909 | 6.75559 | 124 ft | 10 kts | 232° |
| 2026-02-18 21:36 | 51.27869 | 6.75475 | 123 ft | 9 kts | 233° |
| 2026-02-18 21:36 | 51.27837 | 6.75388 | 126 ft | 9 kts | 262° |
| 2026-02-18 21:37 | 51.27933 | 6.75274 | 122 ft | 10 kts | 333° |
| 2026-02-18 21:37 | 51.27994 | 6.75271 | 118 ft | 9 kts | 42° |
| 2026-02-18 21:37 | 51.28078 | 6.75447 | 126 ft | 49 kts | 53° |
| 2026-02-18 21:38 | 51.28426 | 6.76177 | 126 ft | 114 kts | 53° |
| 2026-02-18 21:38 | 51.29012 | 6.77411 | 164 ft | 160 kts | 52° |
| 2026-02-18 21:38 | 51.29671 | 6.78810 | 821 ft | 156 kts | 56° |
| 2026-02-18 21:38 | 51.30317 | 6.80192 | 1516 ft | 155 kts | 56° |
| 2026-02-18 21:39 | 51.31008 | 6.81670 | 1862 ft | 175 kts | 56° |
| 2026-02-18 21:39 | 51.31786 | 6.83320 | 2159 ft | 196 kts | 57° |
| 2026-02-18 21:39 | 51.32647 | 6.85149 | 2497 ft | 218 kts | 58° |
| 2026-02-18 21:39 | 51.33585 | 6.87161 | 2937 ft | 238 kts | 59° |
| 2026-02-18 21:40 | 51.34568 | 6.89358 | 3690 ft | 244 kts | 62° |
| 2026-02-18 21:40 | 51.35219 | 6.91816 | 4514 ft | 240 kts | 86° |
| 2026-02-18 21:40 | 51.35141 | 6.94465 | 5314 ft | 240 kts | 101° |
| 2026-02-18 21:40 | 51.34874 | 6.97131 | 6108 ft | 245 kts | 102° |
| 2026-02-18 21:41 | 51.34313 | 7.02619 | 7670 ft | 255 kts | 102° |
| 2026-02-18 21:41 | 51.33783 | 7.05326 | 8382 ft | 258 kts | 121° |
| 2026-02-18 21:41 | 51.32587 | 7.07482 | 9090 ft | 264 kts | 141° |
| 2026-02-18 21:42 | 51.31112 | 7.09277 | 9818 ft | 270 kts | 143° |
| 2026-02-18 21:42 | 51.29601 | 7.11089 | 10290 ft | 284 kts | 143° |
| 2026-02-18 21:42 | 51.28032 | 7.13238 | 10516 ft | 310 kts | 139° |
| 2026-02-18 21:42 | 51.26370 | 7.15623 | 10790 ft | 328 kts | 138° |
| 2026-02-18 21:43 | 51.24646 | 7.18114 | 11376 ft | 338 kts | 138° |
| 2026-02-18 21:43 | 51.22884 | 7.20655 | 12033 ft | 341 kts | 138° |
| 2026-02-18 21:43 | 51.21103 | 7.23230 | 12631 ft | 347 kts | 139° |
| 2026-02-18 21:43 | 51.19308 | 7.25829 | 13183 ft | 351 kts | 139° |
| 2026-02-18 21:44 | 51.17471 | 7.28476 | 13756 ft | 358 kts | 139° |
| 2026-02-18 21:44 | 51.15625 | 7.31125 | 14342 ft | 363 kts | 139° |
| 2026-02-18 21:44 | 51.13730 | 7.33841 | 14913 ft | 368 kts | 139° |
| 2026-02-18 21:44 | 51.11813 | 7.36594 | 15468 ft | 373 kts | 140° |
| 2026-02-18 21:45 | 51.08575 | 7.41240 | 16368 ft | 381 kts | 140° |
| 2026-02-18 21:45 | 51.06589 | 7.44082 | 16861 ft | 386 kts | 140° |
| 2026-02-18 21:45 | 51.04578 | 7.46950 | 17369 ft | 390 kts | 140° |
| 2026-02-18 21:46 | 51.02542 | 7.49851 | 17875 ft | 395 kts | 140° |
| 2026-02-18 21:46 | 51.00487 | 7.52779 | 18362 ft | 399 kts | 140° |
| 2026-02-18 21:46 | 50.98407 | 7.55742 | 18840 ft | 403 kts | 140° |
| 2026-02-18 21:46 | 50.96330 | 7.58693 | 19301 ft | 407 kts | 141° |
| 2026-02-18 21:47 | 50.94198 | 7.61717 | 19771 ft | 411 kts | 141° |
| 2026-02-18 21:47 | 50.92060 | 7.64748 | 20242 ft | 414 kts | 141° |
| 2026-02-18 21:47 | 50.89897 | 7.67815 | 20690 ft | 418 kts | 141° |
| 2026-02-18 21:47 | 50.87720 | 7.70892 | 21123 ft | 421 kts | 141° |
| 2026-02-18 21:48 | 50.85523 | 7.73989 | 21539 ft | 425 kts | 141° |
| 2026-02-18 21:48 | 50.83308 | 7.77105 | 21940 ft | 428 kts | 141° |
| 2026-02-18 21:48 | 50.81069 | 7.80246 | 22342 ft | 431 kts | 142° |
| 2026-02-18 21:48 | 50.78845 | 7.83360 | 22718 ft | 435 kts | 142° |
| 2026-02-18 21:49 | 50.74289 | 7.89730 | 23478 ft | 440 kts | 142° |
| 2026-02-18 21:49 | 50.71989 | 7.92949 | 23835 ft | 443 kts | 142° |
| 2026-02-18 21:49 | 50.69671 | 7.96184 | 24183 ft | 447 kts | 142° |
| 2026-02-18 21:50 | 50.67333 | 7.99439 | 24535 ft | 449 kts | 142° |
| 2026-02-18 21:50 | 50.64970 | 8.02722 | 24892 ft | 451 kts | 143° |
| 2026-02-18 21:50 | 50.62485 | 8.05648 | 25183 ft | 450 kts | 153° |
| 2026-02-18 21:50 | 50.59721 | 8.07902 | 25489 ft | 446 kts | 163° |
| 2026-02-18 21:51 | 50.56782 | 8.09419 | 25838 ft | 442 kts | 172° |
| 2026-02-18 21:51 | 50.53768 | 8.10175 | 26186 ft | 436 kts | 181° |
| 2026-02-18 21:51 | 50.50734 | 8.10557 | 26525 ft | 438 kts | 181° |
| 2026-02-18 21:51 | 50.47690 | 8.10950 | 26870 ft | 440 kts | 181° |
| 2026-02-18 21:52 | 50.44636 | 8.11350 | 27200 ft | 441 kts | 181° |
| 2026-02-18 21:52 | 50.41571 | 8.11752 | 27535 ft | 442 kts | 181° |
| 2026-02-18 21:52 | 50.38535 | 8.12148 | 27853 ft | 443 kts | 181° |
| 2026-02-18 21:52 | 50.35456 | 8.12554 | 28158 ft | 444 kts | 181° |
| 2026-02-18 21:53 | 50.29277 | 8.13369 | 28741 ft | 447 kts | 181° |
| 2026-02-18 21:53 | 50.26162 | 8.13776 | 29026 ft | 448 kts | 181° |
| 2026-02-18 21:53 | 50.23053 | 8.14181 | 29308 ft | 449 kts | 181° |
| 2026-02-18 21:54 | 50.19966 | 8.14585 | 29591 ft | 450 kts | 181° |
| 2026-02-18 21:54 | 50.16848 | 8.14992 | 29908 ft | 449 kts | 181° |
| 2026-02-18 21:54 | 50.13739 | 8.15396 | 30287 ft | 447 kts | 181° |
| 2026-02-18 21:54 | 50.10642 | 8.15805 | 30642 ft | 445 kts | 181° |
| 2026-02-18 21:55 | 50.07550 | 8.16228 | 30984 ft | 444 kts | 181° |
| 2026-02-18 21:55 | 50.04468 | 8.16664 | 31340 ft | 442 kts | 182° |
| 2026-02-18 21:55 | 50.01439 | 8.17098 | 31685 ft | 441 kts | 182° |
| 2026-02-18 21:55 | 49.98390 | 8.17533 | 32057 ft | 438 kts | 182° |
| 2026-02-18 21:56 | 49.95356 | 8.17961 | 32324 ft | 437 kts | 182° |
| 2026-02-18 21:56 | 49.92339 | 8.18383 | 32577 ft | 435 kts | 183° |
| 2026-02-18 21:56 | 49.89324 | 8.18801 | 32776 ft | 434 kts | 183° |
| 2026-02-18 21:57 | 49.80357 | 8.20037 | 32815 ft | 430 kts | 183° |
| 2026-02-18 21:57 | 49.74402 | 8.20852 | 32803 ft | 429 kts | 183° |
| 2026-02-18 21:58 | 49.68440 | 8.21664 | 32784 ft | 429 kts | 183° |
| 2026-02-18 21:58 | 49.62512 | 8.22474 | 32783 ft | 430 kts | 183° |
| 2026-02-18 21:59 | 49.56550 | 8.23293 | 32774 ft | 430 kts | 183° |
| 2026-02-18 21:59 | 49.50580 | 8.24120 | 32774 ft | 430 kts | 183° |
| 2026-02-18 22:00 | 49.44612 | 8.24933 | 32767 ft | 430 kts | 184° |
| 2026-02-18 22:00 | 49.38643 | 8.25729 | 32758 ft | 430 kts | 184° |
| 2026-02-18 22:01 | 49.29717 | 8.26924 | 32749 ft | 431 kts | 184° |
| 2026-02-18 22:02 | 49.23743 | 8.27743 | 32744 ft | 432 kts | 184° |
| 2026-02-18 22:02 | 49.17752 | 8.28558 | 32740 ft | 432 kts | 184° |
| 2026-02-18 22:03 | 49.11790 | 8.29354 | 32738 ft | 432 kts | 184° |
| 2026-02-18 22:03 | 49.05798 | 8.30156 | 32730 ft | 432 kts | 184° |
| 2026-02-18 22:04 | 48.99773 | 8.30959 | 32712 ft | 433 kts | 184° |
| 2026-02-18 22:04 | 48.93788 | 8.31393 | 32720 ft | 428 kts | 188° |
| 2026-02-18 22:05 | 48.84903 | 8.31310 | 32714 ft | 427 kts | 189° |
| 2026-02-18 22:05 | 48.78938 | 8.31305 | 32711 ft | 428 kts | 188° |
| 2026-02-18 22:06 | 48.72968 | 8.31390 | 32708 ft | 428 kts | 188° |
| 2026-02-18 22:06 | 48.67003 | 8.31490 | 32703 ft | 428 kts | 188° |
| 2026-02-18 22:07 | 48.61039 | 8.31573 | 32702 ft | 428 kts | 188° |
| 2026-02-18 22:07 | 48.55116 | 8.31646 | 32696 ft | 428 kts | 188° |
| 2026-02-18 22:08 | 48.49154 | 8.31705 | 32700 ft | 427 kts | 188° |
| 2026-02-18 22:08 | 48.43203 | 8.31782 | 32704 ft | 427 kts | 188° |
| 2026-02-18 22:09 | 48.34275 | 8.31909 | 32705 ft | 427 kts | 188° |
| 2026-02-18 22:10 | 48.28330 | 8.31980 | 32716 ft | 427 kts | 188° |
| 2026-02-18 22:10 | 48.22385 | 8.32045 | 32709 ft | 427 kts | 188° |
| 2026-02-18 22:11 | 48.16438 | 8.32121 | 32722 ft | 427 kts | 188° |
| 2026-02-18 22:11 | 48.10522 | 8.32205 | 32722 ft | 427 kts | 188° |
| 2026-02-18 22:12 | 48.04567 | 8.32289 | 32721 ft | 427 kts | 188° |
| 2026-02-18 22:12 | 47.98621 | 8.32379 | 32720 ft | 427 kts | 188° |
| 2026-02-18 22:13 | 47.89734 | 8.32511 | 32716 ft | 427 kts | 188° |
| 2026-02-18 22:13 | 47.83793 | 8.32588 | 32719 ft | 426 kts | 188° |
| 2026-02-18 22:14 | 47.77854 | 8.32662 | 32711 ft | 427 kts | 188° |
| 2026-02-18 22:14 | 47.71904 | 8.32748 | 32717 ft | 427 kts | 188° |
| 2026-02-18 22:15 | 47.65956 | 8.32828 | 32711 ft | 427 kts | 188° |
| 2026-02-18 22:15 | 47.60046 | 8.32915 | 32722 ft | 427 kts | 188° |
| 2026-02-18 22:16 | 47.54052 | 8.33001 | 32715 ft | 428 kts | 188° |
| 2026-02-18 22:16 | 47.48127 | 8.33087 | 32717 ft | 429 kts | 188° |
| 2026-02-18 22:17 | 47.39164 | 8.33215 | 32727 ft | 429 kts | 188° |
| 2026-02-18 22:18 | 47.33190 | 8.33295 | 32722 ft | 429 kts | 188° |
| 2026-02-18 22:18 | 47.27231 | 8.33537 | 32720 ft | 433 kts | 185° |
| 2026-02-18 22:19 | 47.21192 | 8.34367 | 32721 ft | 437 kts | 183° |
| 2026-02-18 22:19 | 47.15157 | 8.35372 | 32709 ft | 437 kts | 183° |
| 2026-02-18 22:20 | 47.09103 | 8.36267 | 32719 ft | 436 kts | 184° |
| 2026-02-18 22:20 | 47.03055 | 8.37074 | 32722 ft | 436 kts | 184° |
| 2026-02-18 22:21 | 46.94029 | 8.38275 | 32723 ft | 436 kts | 184° |
| 2026-02-18 22:21 | 46.87989 | 8.39091 | 32718 ft | 436 kts | 184° |
| 2026-02-18 22:22 | 46.81939 | 8.39914 | 32737 ft | 436 kts | 184° |
| 2026-02-18 22:22 | 46.75888 | 8.40733 | 32734 ft | 436 kts | 184° |
| 2026-02-18 22:23 | 46.69844 | 8.41553 | 32733 ft | 435 kts | 184° |
| 2026-02-18 22:23 | 46.63832 | 8.42351 | 32573 ft | 437 kts | 184° |
| 2026-02-18 22:24 | 46.60772 | 8.42749 | 31390 ft | 446 kts | 183° |
| 2026-02-18 22:24 | 46.57645 | 8.43152 | 30147 ft | 455 kts | 183° |
| 2026-02-18 22:24 | 46.54483 | 8.43569 | 29262 ft | 456 kts | 182° |
| 2026-02-18 22:24 | 46.51330 | 8.43996 | 28421 ft | 455 kts | 182° |
| 2026-02-18 22:25 | 46.45062 | 8.44858 | 26923 ft | 449 kts | 181° |
| 2026-02-18 22:25 | 46.41963 | 8.45283 | 26317 ft | 443 kts | 181° |
| 2026-02-18 22:25 | 46.38944 | 8.45694 | 25687 ft | 439 kts | 181° |
| 2026-02-18 22:26 | 46.35917 | 8.46099 | 25084 ft | 434 kts | 181° |
| 2026-02-18 22:26 | 46.32930 | 8.46493 | 24487 ft | 429 kts | 181° |
| 2026-02-18 22:26 | 46.29971 | 8.46880 | 23900 ft | 423 kts | 181° |
| 2026-02-18 22:26 | 46.27051 | 8.47265 | 23302 ft | 418 kts | 181° |
| 2026-02-18 22:27 | 46.24167 | 8.47657 | 22733 ft | 413 kts | 180° |
| 2026-02-18 22:27 | 46.21326 | 8.48061 | 22199 ft | 408 kts | 180° |
| 2026-02-18 22:27 | 46.18555 | 8.48466 | 21697 ft | 402 kts | 180° |
| 2026-02-18 22:27 | 46.15790 | 8.48874 | 21212 ft | 396 kts | 180° |
| 2026-02-18 22:28 | 46.13056 | 8.49272 | 20721 ft | 391 kts | 180° |
| 2026-02-18 22:28 | 46.10375 | 8.49958 | 20240 ft | 392 kts | 170° |
| 2026-02-18 22:28 | 46.07828 | 8.51238 | 19733 ft | 391 kts | 165° |
| 2026-02-18 22:28 | 46.05289 | 8.52613 | 19240 ft | 387 kts | 165° |
| 2026-02-18 22:29 | 46.00284 | 8.55316 | 18208 ft | 380 kts | 165° |
| 2026-02-18 22:29 | 45.97833 | 8.56638 | 17949 ft | 371 kts | 165° |
| 2026-02-18 22:29 | 45.95455 | 8.57923 | 17822 ft | 359 kts | 165° |
| 2026-02-18 22:30 | 45.93149 | 8.59168 | 17693 ft | 348 kts | 165° |
| 2026-02-18 22:30 | 45.90923 | 8.60379 | 17568 ft | 338 kts | 163° |
| 2026-02-18 22:30 | 45.88876 | 8.62007 | 17350 ft | 338 kts | 149° |
| 2026-02-18 22:30 | 45.87006 | 8.64106 | 16899 ft | 341 kts | 147° |
| 2026-02-18 22:31 | 45.85192 | 8.66208 | 16638 ft | 337 kts | 146° |
| 2026-02-18 22:31 | 45.83969 | 8.67637 | 16412 ft | 335 kts | 146° |
| 2026-02-18 22:31 | 45.81582 | 8.70425 | 15960 ft | 333 kts | 146° |
| 2026-02-18 22:31 | 45.79789 | 8.72512 | 15633 ft | 330 kts | 146° |
| 2026-02-18 22:32 | 45.78584 | 8.73911 | 15401 ft | 329 kts | 147° |
| 2026-02-18 22:32 | 45.76823 | 8.75934 | 15072 ft | 326 kts | 149° |
| 2026-02-18 22:32 | 45.74911 | 8.77584 | 14743 ft | 319 kts | 158° |
| 2026-02-18 22:32 | 45.72959 | 8.79084 | 14417 ft | 317 kts | 157° |
| 2026-02-18 22:33 | 45.69086 | 8.82059 | 13753 ft | 314 kts | 157° |
| 2026-02-18 22:33 | 45.67164 | 8.83530 | 13425 ft | 312 kts | 157° |
| 2026-02-18 22:33 | 45.65262 | 8.84988 | 13197 ft | 306 kts | 157° |
| 2026-02-18 22:34 | 45.63410 | 8.86410 | 13069 ft | 297 kts | 158° |
| 2026-02-18 22:34 | 45.61578 | 8.87656 | 12937 ft | 284 kts | 168° |
| 2026-02-18 22:34 | 45.59688 | 8.88267 | 12701 ft | 276 kts | 175° |
| 2026-02-18 22:34 | 45.57807 | 8.88776 | 12402 ft | 274 kts | 175° |
| 2026-02-18 22:35 | 45.55958 | 8.89275 | 12120 ft | 272 kts | 175° |
| 2026-02-18 22:35 | 45.54100 | 8.89776 | 11817 ft | 271 kts | 175° |
| 2026-02-18 22:35 | 45.52262 | 8.90273 | 11590 ft | 266 kts | 175° |
| 2026-02-18 22:35 | 45.50459 | 8.90763 | 11195 ft | 262 kts | 174° |
| 2026-02-18 22:36 | 45.48691 | 8.91246 | 10853 ft | 254 kts | 174° |
| 2026-02-18 22:36 | 45.46972 | 8.91717 | 10433 ft | 249 kts | 174° |
| 2026-02-18 22:36 | 45.45275 | 8.92179 | 9952 ft | 247 kts | 173° |
| 2026-02-18 22:36 | 45.43550 | 8.92632 | 9070 ft | 259 kts | 173° |
| 2026-02-18 22:37 | 45.40106 | 8.93345 | 8356 ft | 235 kts | 185° |
| 2026-02-18 22:37 | 45.38585 | 8.92696 | 7855 ft | 230 kts | 216° |
| 2026-02-18 22:38 | 45.37359 | 8.88699 | 7066 ft | 234 kts | 270° |
| 2026-02-18 22:38 | 45.37472 | 8.86390 | 6624 ft | 233 kts | 273° |
| 2026-02-18 22:38 | 45.37690 | 8.84085 | 6272 ft | 235 kts | 283° |
| 2026-02-18 22:39 | 45.39540 | 8.80349 | 5708 ft | 239 kts | 324° |
| 2026-02-18 22:39 | 45.41057 | 8.79393 | 5465 ft | 239 kts | 345° |
| 2026-02-18 22:39 | 45.42692 | 8.78928 | 5138 ft | 240 kts | 348° |
| 2026-02-18 22:39 | 45.44337 | 8.78491 | 4817 ft | 240 kts | 348° |
| 2026-02-18 22:40 | 45.47613 | 8.77596 | 3847 ft | 239 kts | 348° |
| 2026-02-18 22:40 | 45.49228 | 8.77151 | 3270 ft | 233 kts | 348° |
| 2026-02-18 22:40 | 45.50757 | 8.76731 | 2881 ft | 219 kts | 348° |
| 2026-02-18 22:41 | 45.53534 | 8.75966 | 2340 ft | 185 kts | 349° |
| 2026-02-18 22:41 | 45.54726 | 8.75638 | 2112 ft | 165 kts | 349° |
| 2026-02-18 22:41 | 45.55807 | 8.75339 | 1872 ft | 152 kts | 350° |
| 2026-02-18 22:42 | 45.56838 | 8.75049 | 1687 ft | 147 kts | 350° |
| 2026-02-18 22:42 | 45.57829 | 8.74775 | 1473 ft | 142 kts | 350° |
| 2026-02-18 22:42 | 45.58788 | 8.74514 | 1318 ft | 138 kts | 350° |
| 2026-02-18 22:42 | 45.59746 | 8.74249 | 1145 ft | 140 kts | 350° |
| 2026-02-18 22:43 | 45.60702 | 8.73989 | 949 ft | 138 kts | 350° |
| 2026-02-18 22:43 | 45.61653 | 8.73726 | 783 ft | 140 kts | 350° |
| 2026-02-18 22:43 | 45.62525 | 8.73489 | 744 ft | 110 kts | 349° |
| 2026-02-18 22:43 | 45.63155 | 8.73314 | 744 ft | 81 kts | 349° |
| 2026-02-18 22:44 | 45.63560 | 8.73197 | 746 ft | 41 kts | 345° |
| 2026-02-18 22:44 | 45.63743 | 8.73039 | 750 ft | 24 kts | 322° |
| 2026-02-18 22:44 | 45.63830 | 8.72881 | 748 ft | 19 kts | 304° |
| 2026-02-18 22:44 | 45.63891 | 8.72780 | 748 ft | 11 kts | 343° |
| 2026-02-18 22:45 | 45.64028 | 8.72766 | 752 ft | 8 kts | 349° |
| 2026-02-18 22:45 | 45.64079 | 8.72749 | 748 ft | 7 kts | 347° |
| 2026-02-18 22:45 | 45.64121 | 8.72737 | 751 ft | 5 kts | 350° |
| 2026-02-18 22:46 | 45.64156 | 8.72729 | 749 ft | 5 kts | 351° |
| 2026-02-18 22:46 | 45.64200 | 8.72719 | 749 ft | 13 kts | 352° |
| 2026-02-18 22:46 | 45.64318 | 8.72684 | 749 ft | 19 kts | 349° |
| 2026-02-18 22:46 | 45.64427 | 8.72673 | 748 ft | 10 kts | 355° |
| 2026-02-18 22:47 | 45.64488 | 8.72657 | 749 ft | 8 kts | 348° |
| 2026-02-18 22:47 | 45.64539 | 8.72643 | 751 ft | 7 kts | 349° |
| 2026-02-18 22:47 | 45.64585 | 8.72631 | 748 ft | 7 kts | 350° |
| 2026-02-18 22:47 | 45.64627 | 8.72620 | 752 ft | 6 kts | 349° |
| 2026-02-18 22:48 | 45.64680 | 8.72604 | 752 ft | 9 kts | 349° |
| 2026-02-18 22:48 | 45.64736 | 8.72589 | 750 ft | 8 kts | 349° |
| 2026-02-18 22:48 | 45.64783 | 8.72576 | 752 ft | 6 kts | 350° |
| 2026-02-18 22:48 | 45.64793 | 8.72540 | 752 ft | 4 kts | 261° |
| 2026-02-18 22:49 | 45.64786 | 8.72484 | 749 ft | 2 kts | 259° |
| 2026-02-18 22:49 | 45.64784 | 8.72471 | 752 ft | 0 kts | 259° |
| 2026-02-18 23:00 | 45.64784 | 8.72466 | 749 ft | 1 kts | 259° |
| 2026-02-18 23:01 | 45.64784 | 8.72470 | 752 ft | 0 kts | 259° |